createdAt,value
2022-08-08T00:00:51.611Z,264
2022-08-08T00:01:00.140Z,264
2022-08-08T00:02:04.355Z,264
2022-08-08T00:02:52.775Z,264
2022-08-08T00:03:53.181Z,264
2022-08-08T00:04:52.924Z,264
2022-08-08T00:06:01.309Z,264
2022-08-08T00:06:52.773Z,264
2022-08-08T00:07:52.772Z,264
2022-08-08T00:08:52.776Z,264
2022-08-08T00:09:52.778Z,264
2022-08-08T00:10:52.770Z,264
2022-08-08T00:12:05.848Z,264
2022-08-08T00:12:56.545Z,264
2022-08-08T00:14:16.088Z,264
2022-08-08T00:14:57.523Z,264
2022-08-08T00:15:56.362Z,302.12
2022-08-08T00:16:52.782Z,278.12
2022-08-08T00:18:02.883Z,268.24
2022-08-08T00:18:52.791Z,295.06
2022-08-08T00:19:52.793Z,290.82
2022-08-08T00:20:52.793Z,269.65
2022-08-08T00:21:52.791Z,285.18
2022-08-08T00:22:52.809Z,295.06
2022-08-08T00:23:52.803Z,271.06
2022-08-08T00:24:52.804Z,290.82
2022-08-08T00:25:52.802Z,296.47
2022-08-08T00:26:52.807Z,276.71
2022-08-08T00:27:52.805Z,276.71
2022-08-08T00:28:52.816Z,276.71
2022-08-08T00:29:52.813Z,276.71
2022-08-08T00:30:59.105Z,276.71
2022-08-08T00:32:15.753Z,276.71
2022-08-08T00:32:52.813Z,276.71
2022-08-08T00:34:17.616Z,276.71
2022-08-08T00:34:52.825Z,276.71
2022-08-08T00:35:52.822Z,276.71
2022-08-08T00:36:54.870Z,276.71
2022-08-08T00:37:57.050Z,276.71
2022-08-08T00:38:54.538Z,276.71
2022-08-08T00:41:08.234Z,276.71
2022-08-08T00:41:08.363Z,276.71
2022-08-08T00:41:55.647Z,276.71
2022-08-08T00:42:52.879Z,276.71
2022-08-08T00:43:56.151Z,276.71
2022-08-08T00:44:52.834Z,276.71
2022-08-08T00:45:52.838Z,276.71
2022-08-08T00:46:56.172Z,276.71
2022-08-08T00:48:01.911Z,231.53
2022-08-08T00:48:59.516Z,217.41
2022-08-08T00:49:58.666Z,203.29
2022-08-08T00:50:53.485Z,203.29
2022-08-08T00:51:52.859Z,203.29
2022-08-08T00:52:52.858Z,203.29
2022-08-08T00:53:57.420Z,203.29
2022-08-08T00:54:52.857Z,203.29
2022-08-08T00:55:54.540Z,203.29
2022-08-08T00:56:52.871Z,203.29
2022-08-08T00:57:56.939Z,203.29
2022-08-08T00:58:54.236Z,203.29
2022-08-08T00:59:52.866Z,203.29
2022-08-08T01:00:52.928Z,203.29
2022-08-08T01:01:55.531Z,203.29
2022-08-08T01:04:00.488Z,203.29
2022-08-08T01:04:00.519Z,203.29
2022-08-08T01:04:52.877Z,203.29
2022-08-08T01:05:59.046Z,203.29
2022-08-08T01:06:54.406Z,203.29
2022-08-08T01:07:55.129Z,203.29
2022-08-08T01:08:52.884Z,203.29
2022-08-08T01:09:52.884Z,282.35
2022-08-08T01:10:52.890Z,296.47
2022-08-08T01:11:52.893Z,295.06
2022-08-08T01:12:53.190Z,296.47
2022-08-08T01:13:57.996Z,283.76
2022-08-08T01:14:53.867Z,288
2022-08-08T01:15:53.521Z,275.29
2022-08-08T01:16:52.911Z,290.82
2022-08-08T01:17:55.758Z,275.29
2022-08-08T01:18:54.745Z,275.29
2022-08-08T01:20:02.324Z,275.29
2022-08-08T01:20:52.908Z,275.29
2022-08-08T01:22:07.414Z,275.29
2022-08-08T01:22:52.910Z,275.29
2022-08-08T01:24:03.595Z,275.29
2022-08-08T01:24:54.066Z,275.29
2022-08-08T01:25:54.038Z,275.29
2022-08-08T01:26:52.912Z,275.29
2022-08-08T01:27:52.909Z,275.29
2022-08-08T01:28:52.913Z,275.29
2022-08-08T01:29:58.587Z,275.29
2022-08-08T01:30:53.545Z,275.29
2022-08-08T01:32:03.127Z,275.29
2022-08-08T01:32:52.920Z,275.29
2022-08-08T01:33:54.587Z,275.29
2022-08-08T01:34:52.928Z,275.29
2022-08-08T01:35:52.921Z,275.29
2022-08-08T01:36:52.924Z,275.29
2022-08-08T01:37:56.720Z,275.29
2022-08-08T01:38:53.082Z,275.29
2022-08-08T01:39:53.529Z,295.06
2022-08-08T01:40:52.937Z,292.24
2022-08-08T01:41:52.934Z,307.76
2022-08-08T01:42:52.933Z,272.47
2022-08-08T01:43:52.926Z,293.65
2022-08-08T01:44:53.177Z,293.65
2022-08-08T01:45:54.609Z,293.65
2022-08-08T01:46:52.940Z,293.65
2022-08-08T01:48:15.124Z,331.76
2022-08-08T01:48:52.931Z,286.59
2022-08-08T01:49:53.977Z,268.24
2022-08-08T01:50:52.943Z,268.24
2022-08-08T01:52:05.777Z,268.24
2022-08-08T01:53:42.472Z,303.53
2022-08-08T01:54:12.048Z,269.65
2022-08-08T01:55:18.594Z,268.24
2022-08-08T01:56:26.085Z,266.82
2022-08-08T01:56:52.949Z,247.06
2022-08-08T01:58:04.660Z,255.53
2022-08-08T01:58:52.948Z,268.24
2022-08-08T02:00:01.332Z,255.53
2022-08-08T02:00:57.305Z,255.53
2022-08-08T02:01:54.895Z,255.53
2022-08-08T02:02:52.953Z,255.53
2022-08-08T02:03:56.313Z,271.06
2022-08-08T02:04:53.962Z,254.12
2022-08-08T02:05:56.112Z,248.47
2022-08-08T02:06:52.951Z,248.47
2022-08-08T02:07:52.953Z,248.47
2022-08-08T02:08:52.957Z,248.47
2022-08-08T02:10:03.065Z,248.47
2022-08-08T02:10:52.949Z,248.47
2022-08-08T02:11:59.374Z,248.47
2022-08-08T02:12:52.959Z,248.47
2022-08-08T02:13:55.450Z,248.47
2022-08-08T02:14:56.183Z,265.41
2022-08-08T02:15:52.960Z,265.41
2022-08-08T02:16:52.967Z,258.35
2022-08-08T02:17:52.977Z,245.65
2022-08-08T02:18:58.677Z,245.65
2022-08-08T02:19:57.677Z,245.65
2022-08-08T02:21:00.324Z,264
2022-08-08T02:21:52.966Z,271.06
2022-08-08T02:22:55.049Z,251.29
2022-08-08T02:23:54.567Z,273.88
2022-08-08T02:24:52.967Z,271.06
2022-08-08T02:25:52.964Z,258.35
2022-08-08T02:26:55.372Z,262.59
2022-08-08T02:27:52.973Z,1.41
2022-08-08T02:28:52.973Z,1.41
2022-08-08T02:29:53.162Z,40.94
2022-08-08T02:30:58.019Z,46.59
2022-08-08T02:31:59.686Z,32.47
2022-08-08T02:32:52.964Z,32.47
2022-08-08T02:34:00.860Z,32.47
2022-08-08T02:35:08.723Z,32.47
2022-08-08T02:36:02.801Z,32.47
2022-08-08T02:36:54.648Z,32.47
2022-08-08T02:37:56.632Z,32.47
2022-08-08T02:38:52.979Z,32.47
2022-08-08T02:39:57.605Z,32.47
2022-08-08T02:40:52.996Z,32.47
2022-08-08T02:41:58.345Z,32.47
2022-08-08T02:43:00.802Z,32.47
2022-08-08T02:44:36.109Z,32.47
2022-08-08T02:44:56.216Z,32.47
2022-08-08T02:45:54.420Z,32.47
2022-08-08T02:46:52.988Z,32.47
2022-08-08T02:47:54.963Z,32.47
2022-08-08T02:48:52.982Z,32.47
2022-08-08T02:49:52.977Z,32.47
2022-08-08T02:50:56.182Z,32.47
2022-08-08T02:51:55.530Z,32.47
2022-08-08T02:52:53.227Z,32.47
2022-08-08T02:53:52.979Z,32.47
2022-08-08T02:54:52.994Z,32.47
2022-08-08T02:55:57.678Z,32.47
2022-08-08T02:56:52.981Z,32.47
2022-08-08T02:57:52.983Z,32.47
2022-08-08T02:58:52.980Z,32.47
2022-08-08T02:59:57.247Z,32.47
2022-08-08T03:00:53.046Z,32.47
2022-08-08T03:01:53.038Z,32.47
2022-08-08T03:02:52.986Z,32.47
2022-08-08T03:05:02.063Z,32.47
2022-08-08T03:05:02.259Z,32.47
2022-08-08T03:05:53.395Z,32.47
2022-08-08T03:06:52.994Z,32.47
2022-08-08T03:07:57.868Z,32.47
2022-08-08T03:08:52.991Z,32.47
2022-08-08T03:09:52.992Z,32.47
2022-08-08T03:10:53.765Z,32.47
2022-08-08T03:12:01.389Z,32.47
2022-08-08T03:13:01.299Z,32.47
2022-08-08T03:15:54.755Z,32.47
2022-08-08T03:15:54.946Z,32.47
2022-08-08T03:15:55.135Z,32.47
2022-08-08T03:16:52.992Z,32.47
2022-08-08T03:18:00.033Z,32.47
2022-08-08T03:18:53.000Z,32.47
2022-08-08T03:19:53.000Z,32.47
2022-08-08T03:20:52.998Z,32.47
2022-08-08T03:21:55.007Z,32.47
2022-08-08T03:22:56.591Z,32.47
2022-08-08T03:23:57.317Z,32.47
2022-08-08T03:24:56.877Z,32.47
2022-08-08T03:25:52.995Z,32.47
2022-08-08T03:26:53.001Z,32.47
2022-08-08T03:27:56.411Z,32.47
2022-08-08T03:28:53.008Z,32.47
2022-08-08T03:29:55.500Z,32.47
2022-08-08T03:31:07.681Z,32.47
2022-08-08T03:32:05.580Z,32.47
2022-08-08T03:32:58.783Z,32.47
2022-08-08T03:33:54.259Z,32.47
2022-08-08T03:34:53.012Z,32.47
2022-08-08T03:35:53.526Z,32.47
2022-08-08T03:36:53.015Z,32.47
2022-08-08T03:37:59.243Z,32.47
2022-08-08T03:38:59.484Z,32.47
2022-08-08T03:40:00.372Z,32.47
2022-08-08T03:40:53.097Z,32.47
2022-08-08T03:42:13.635Z,32.47
2022-08-08T03:42:53.036Z,32.47
2022-08-08T03:43:53.042Z,32.47
2022-08-08T03:44:53.036Z,32.47
2022-08-08T03:46:03.870Z,32.47
2022-08-08T03:46:53.049Z,32.47
2022-08-08T03:47:54.185Z,32.47
2022-08-08T03:49:10.317Z,32.47
2022-08-08T03:49:59.257Z,32.47
2022-08-08T03:50:53.048Z,32.47
2022-08-08T03:51:53.060Z,32.47
2022-08-08T03:52:53.052Z,32.47
2022-08-08T03:53:53.056Z,32.47
2022-08-08T03:55:02.703Z,32.47
2022-08-08T03:55:55.400Z,32.47
2022-08-08T03:56:53.053Z,32.47
2022-08-08T03:58:32.521Z,32.47
2022-08-08T03:58:53.081Z,32.47
2022-08-08T03:59:57.191Z,32.47
2022-08-08T04:00:56.543Z,32.47
2022-08-08T04:02:02.599Z,32.47
2022-08-08T04:02:53.285Z,32.47
2022-08-08T04:03:57.108Z,32.47
2022-08-08T04:04:53.067Z,32.47
2022-08-08T04:05:53.069Z,32.47
2022-08-08T04:06:53.070Z,32.47
2022-08-08T04:07:53.066Z,32.47
2022-08-08T04:08:53.071Z,32.47
2022-08-08T04:09:59.195Z,32.47
2022-08-08T04:10:59.697Z,32.47
2022-08-08T04:11:59.360Z,32.47
2022-08-08T04:12:53.079Z,32.47
2022-08-08T04:14:02.752Z,32.47
2022-08-08T04:14:53.079Z,32.47
2022-08-08T04:15:54.516Z,32.47
2022-08-08T04:16:53.084Z,32.47
2022-08-08T04:17:58.661Z,32.47
2022-08-08T04:18:53.076Z,32.47
2022-08-08T04:19:53.079Z,32.47
2022-08-08T04:20:53.088Z,32.47
2022-08-08T04:21:54.029Z,32.47
2022-08-08T04:22:53.095Z,32.47
2022-08-08T04:24:05.935Z,32.47
2022-08-08T04:24:53.089Z,32.47
2022-08-08T04:25:53.097Z,32.47
2022-08-08T04:26:57.034Z,32.47
2022-08-08T04:28:03.777Z,32.47
2022-08-08T04:28:54.488Z,32.47
2022-08-08T04:29:55.132Z,32.47
2022-08-08T04:30:55.146Z,32.47
2022-08-08T04:31:57.106Z,32.47
2022-08-08T04:32:53.116Z,32.47
2022-08-08T04:33:53.123Z,32.47
2022-08-08T04:34:55.551Z,32.47
2022-08-08T04:35:53.114Z,32.47
2022-08-08T04:36:53.123Z,32.47
2022-08-08T04:37:53.196Z,32.47
2022-08-08T04:39:07.293Z,32.47
2022-08-08T04:40:04.520Z,32.47
2022-08-08T04:40:53.977Z,32.47
2022-08-08T04:41:53.134Z,32.47
2022-08-08T04:42:56.485Z,32.47
2022-08-08T04:43:57.184Z,32.47
2022-08-08T04:44:53.140Z,32.47
2022-08-08T04:45:53.150Z,32.47
2022-08-08T04:46:53.140Z,32.47
2022-08-08T04:47:53.146Z,32.47
2022-08-08T04:48:53.150Z,32.47
2022-08-08T04:49:58.873Z,32.47
2022-08-08T04:50:53.142Z,32.47
2022-08-08T04:51:54.882Z,32.47
2022-08-08T04:52:58.793Z,32.47
2022-08-08T04:54:27.696Z,32.47
2022-08-08T04:54:53.152Z,32.47
2022-08-08T04:55:56.405Z,32.47
2022-08-08T04:56:53.149Z,32.47
2022-08-08T04:57:53.152Z,326.12
2022-08-08T04:58:53.154Z,326.12
2022-08-08T04:59:53.154Z,320.47
2022-08-08T05:00:53.142Z,323.29
2022-08-08T05:01:53.230Z,323.29
2022-08-08T05:02:53.375Z,323.29
2022-08-08T05:04:08.553Z,323.29
2022-08-08T05:04:53.155Z,323.29
2022-08-08T05:05:53.395Z,323.29
2022-08-08T05:06:53.162Z,323.29
2022-08-08T05:07:53.158Z,323.29
2022-08-08T05:08:53.168Z,323.29
2022-08-08T05:09:53.161Z,2.82
2022-08-08T05:10:53.161Z,358.59
2022-08-08T05:11:56.619Z,347.29
2022-08-08T05:13:00.453Z,8.47
2022-08-08T05:13:55.073Z,29.65
2022-08-08T05:14:53.277Z,29.65
2022-08-08T05:16:48.692Z,29.65
2022-08-08T05:17:01.352Z,29.65
2022-08-08T05:17:54.120Z,4.24
2022-08-08T05:18:53.172Z,11.29
2022-08-08T05:20:04.765Z,8.47
2022-08-08T05:20:53.550Z,348.71
2022-08-08T05:21:58.344Z,360
2022-08-08T05:22:53.178Z,35.29
2022-08-08T05:23:59.151Z,2.82
2022-08-08T05:24:53.187Z,347.29
2022-08-08T05:25:55.311Z,314.82
2022-08-08T05:26:53.183Z,333.18
2022-08-08T05:27:54.893Z,326.12
2022-08-08T05:28:56.993Z,314.82
2022-08-08T05:29:53.193Z,312
2022-08-08T05:30:54.441Z,350.12
2022-08-08T05:32:02.962Z,7.06
2022-08-08T05:32:53.189Z,11.29
2022-08-08T05:33:53.204Z,18.35
2022-08-08T05:34:53.604Z,40.94
2022-08-08T05:35:54.060Z,12.71
2022-08-08T05:36:53.199Z,9.88
2022-08-08T05:37:54.394Z,48
2022-08-08T05:38:53.210Z,35.29
2022-08-08T05:39:53.320Z,11.29
2022-08-08T05:40:57.313Z,9.88
2022-08-08T05:41:55.345Z,11.29
2022-08-08T05:42:53.212Z,11.29
2022-08-08T05:44:02.608Z,14.12
2022-08-08T05:44:53.212Z,7.06
2022-08-08T05:45:54.819Z,351.53
2022-08-08T05:46:53.210Z,56.47
2022-08-08T05:48:00.231Z,8.47
2022-08-08T05:48:54.331Z,38.12
2022-08-08T05:49:53.854Z,97.41
2022-08-08T05:50:58.908Z,60.71
2022-08-08T05:51:53.996Z,22.59
2022-08-08T05:52:53.223Z,42.35
2022-08-08T05:53:55.087Z,49.41
2022-08-08T05:54:55.813Z,43.76
2022-08-08T05:56:08.055Z,48
2022-08-08T05:56:53.220Z,345.88
2022-08-08T05:58:03.757Z,341.65
2022-08-08T05:58:54.259Z,351.53
2022-08-08T06:00:01.355Z,352.94
2022-08-08T06:00:56.960Z,344.47
2022-08-08T06:01:56.950Z,347.29
2022-08-08T06:02:53.239Z,309.18
2022-08-08T06:03:53.480Z,1.41
2022-08-08T06:04:54.486Z,360
2022-08-08T06:05:53.236Z,330.35
2022-08-08T06:06:53.241Z,350.12
2022-08-08T06:08:02.299Z,1.41
2022-08-08T06:08:54.845Z,355.76
2022-08-08T06:09:59.279Z,352.94
2022-08-08T06:10:53.239Z,328.94
2022-08-08T06:11:53.248Z,303.53
2022-08-08T06:12:53.244Z,352.94
2022-08-08T06:13:53.248Z,336
2022-08-08T06:14:53.250Z,331.76
2022-08-08T06:15:53.859Z,307.76
2022-08-08T06:16:53.245Z,300.71
2022-08-08T06:18:18.185Z,313.41
2022-08-08T06:18:53.245Z,327.53
2022-08-08T06:19:53.251Z,324.71
2022-08-08T06:20:56.226Z,307.76
2022-08-08T06:21:56.641Z,307.76
2022-08-08T06:22:53.251Z,307.76
2022-08-08T06:24:02.037Z,5.65
2022-08-08T06:24:53.378Z,5.65
2022-08-08T06:26:36.299Z,9.88
2022-08-08T06:26:53.265Z,5.65
2022-08-08T06:27:53.255Z,5.65
2022-08-08T06:28:54.142Z,5.65
2022-08-08T06:29:59.641Z,5.65
2022-08-08T06:30:53.251Z,5.65
2022-08-08T06:32:09.674Z,5.65
2022-08-08T06:32:53.264Z,5.65
2022-08-08T06:34:25.230Z,5.65
2022-08-08T06:34:56.628Z,5.65
2022-08-08T06:36:05.970Z,5.65
2022-08-08T06:36:54.193Z,5.65
2022-08-08T06:37:55.869Z,5.65
2022-08-08T06:38:53.266Z,289.41
2022-08-08T06:39:55.669Z,290.82
2022-08-08T06:40:53.986Z,343.06
2022-08-08T06:41:53.264Z,360
2022-08-08T06:42:53.335Z,5.65
2022-08-08T06:43:56.805Z,7.06
2022-08-08T06:44:53.282Z,21.18
2022-08-08T06:45:53.277Z,1.41
2022-08-08T06:46:53.286Z,9.88
2022-08-08T06:47:58.882Z,43.76
2022-08-08T06:48:53.280Z,38.12
2022-08-08T06:49:54.626Z,24
2022-08-08T06:50:53.280Z,347.29
2022-08-08T06:51:57.868Z,7.06
2022-08-08T06:52:53.285Z,354.35
2022-08-08T06:53:56.345Z,293.65
2022-08-08T06:54:53.287Z,2.82
2022-08-08T06:56:00.910Z,15.53
2022-08-08T06:56:53.280Z,345.88
2022-08-08T06:57:54.976Z,9.88
2022-08-08T06:58:53.292Z,16.94
2022-08-08T07:00:09.881Z,345.88
2022-08-08T07:00:53.297Z,1.41
2022-08-08T07:02:18.394Z,323.29
2022-08-08T07:02:53.337Z,333.18
2022-08-08T07:04:39.259Z,331.76
2022-08-08T07:04:53.409Z,307.76
2022-08-08T07:06:01.889Z,345.88
2022-08-08T07:06:53.303Z,314.82
2022-08-08T07:07:55.296Z,334.59
2022-08-08T07:08:53.305Z,0
2022-08-08T07:09:56.738Z,7.06
2022-08-08T07:10:53.298Z,319.06
2022-08-08T07:11:53.301Z,352.94
2022-08-08T07:12:53.312Z,14.12
2022-08-08T07:14:00.228Z,360
2022-08-08T07:14:53.312Z,11.29
2022-08-08T07:16:04.060Z,1.41
2022-08-08T07:16:53.843Z,351.53
2022-08-08T07:17:56.780Z,14.12
2022-08-08T07:18:55.829Z,307.76
2022-08-08T07:19:53.320Z,326.12
2022-08-08T07:20:53.307Z,314.82
2022-08-08T07:21:53.318Z,303.53
2022-08-08T07:22:53.311Z,300.71
2022-08-08T07:23:57.348Z,297.88
2022-08-08T07:24:53.330Z,292.24
2022-08-08T07:25:54.376Z,306.35
2022-08-08T07:26:53.315Z,316.24
2022-08-08T07:28:00.901Z,12.71
2022-08-08T07:28:53.317Z,31.06
2022-08-08T07:29:58.959Z,358.59
2022-08-08T07:30:53.317Z,14.12
2022-08-08T07:31:53.314Z,24
2022-08-08T07:32:53.313Z,355.76
2022-08-08T07:33:59.141Z,80.47
2022-08-08T07:35:00.094Z,22.59
2022-08-08T07:35:54.436Z,8.47
2022-08-08T07:36:53.321Z,18.35
2022-08-08T07:37:56.626Z,354.35
2022-08-08T07:38:53.522Z,19.76
2022-08-08T07:39:56.369Z,14.12
2022-08-08T07:40:53.324Z,39.53
2022-08-08T07:41:59.057Z,360
2022-08-08T07:42:53.322Z,14.12
2022-08-08T07:43:53.684Z,351.53
2022-08-08T07:44:53.321Z,8.47
2022-08-08T07:46:06.027Z,307.76
2022-08-08T07:46:53.333Z,324.71
2022-08-08T07:47:53.326Z,326.12
2022-08-08T07:48:53.324Z,316.24
2022-08-08T07:49:53.325Z,299.29
2022-08-08T07:50:53.368Z,240
2022-08-08T07:51:54.070Z,285.18
2022-08-08T07:52:53.331Z,306.35
2022-08-08T07:54:02.555Z,18.35
2022-08-08T07:54:53.327Z,278.12
2022-08-08T07:55:53.330Z,32.47
2022-08-08T07:56:53.330Z,59.29
2022-08-08T07:57:53.326Z,38.12
2022-08-08T07:58:53.332Z,351.53
2022-08-08T07:59:53.336Z,314.82
2022-08-08T08:00:53.365Z,0
2022-08-08T08:02:34.021Z,307.76
2022-08-08T08:02:53.331Z,350.12
2022-08-08T08:03:53.328Z,24
2022-08-08T08:04:53.340Z,0
2022-08-08T08:05:53.525Z,345.88
2022-08-08T08:06:53.335Z,8.47
2022-08-08T08:07:54.707Z,352.94
2022-08-08T08:08:53.338Z,7.06
2022-08-08T08:09:53.335Z,36.71
2022-08-08T08:10:53.334Z,352.94
2022-08-08T08:11:53.618Z,324.71
2022-08-08T08:12:53.342Z,11.29
2022-08-08T08:14:06.252Z,337.41
2022-08-08T08:14:53.338Z,11.29
2022-08-08T08:15:53.355Z,1.41
2022-08-08T08:16:53.348Z,319.06
2022-08-08T08:17:55.562Z,338.82
2022-08-08T08:18:56.391Z,28.24
2022-08-08T08:19:55.648Z,16.94
2022-08-08T08:20:53.350Z,1.41
2022-08-08T08:21:57.958Z,15.53
2022-08-08T08:22:53.352Z,38.12
2022-08-08T08:23:53.350Z,15.53
2022-08-08T08:24:53.351Z,348.71
2022-08-08T08:25:56.776Z,36.71
2022-08-08T08:26:54.644Z,8.47
2022-08-08T08:27:53.362Z,5.65
2022-08-08T08:28:53.351Z,360
2022-08-08T08:29:53.486Z,42.35
2022-08-08T08:30:53.364Z,21.18
2022-08-08T08:31:54.244Z,26.82
2022-08-08T08:32:53.366Z,24
2022-08-08T08:33:53.364Z,7.06
2022-08-08T08:34:53.365Z,24
2022-08-08T08:36:18.003Z,343.06
2022-08-08T08:36:54.730Z,360
2022-08-08T08:38:14.946Z,358.59
2022-08-08T08:38:53.366Z,18.35
2022-08-08T08:40:00.749Z,333.18
2022-08-08T08:40:53.374Z,316.24
2022-08-08T08:41:53.370Z,306.35
2022-08-08T08:42:53.376Z,36.71
2022-08-08T08:44:13.628Z,347.29
2022-08-08T08:44:53.380Z,290.82
2022-08-08T08:45:57.222Z,296.47
2022-08-08T08:46:55.662Z,295.06
2022-08-08T08:47:54.112Z,319.06
2022-08-08T08:48:53.389Z,350.12
2022-08-08T08:49:53.370Z,299.29
2022-08-08T08:50:53.382Z,258.35
2022-08-08T08:51:53.383Z,304.94
2022-08-08T08:52:59.735Z,317.65
2022-08-08T08:53:55.647Z,293.65
2022-08-08T08:54:55.688Z,293.65
2022-08-08T08:55:53.388Z,265.41
2022-08-08T08:56:53.379Z,297.88
2022-08-08T08:57:53.389Z,285.18
2022-08-08T08:58:53.391Z,271.06
2022-08-08T08:59:59.881Z,8.47
2022-08-08T09:01:05.121Z,272.47
2022-08-08T09:01:53.454Z,344.47
2022-08-08T09:02:53.409Z,4.24
2022-08-08T09:03:53.396Z,66.35
2022-08-08T09:04:53.397Z,242.82
2022-08-08T09:05:54.121Z,18.35
2022-08-08T09:06:53.404Z,4.24
2022-08-08T09:08:12.232Z,22.59
2022-08-08T09:08:53.409Z,360
2022-08-08T09:09:54.975Z,321.88
2022-08-08T09:10:53.412Z,341.65
2022-08-08T09:12:01.917Z,309.18
2022-08-08T09:12:53.409Z,328.94
2022-08-08T09:13:53.594Z,309.18
2022-08-08T09:14:53.421Z,2.82
2022-08-08T09:15:53.410Z,314.82
2022-08-08T09:16:53.418Z,328.94
2022-08-08T09:17:55.890Z,1.41
2022-08-08T09:18:53.421Z,334.59
2022-08-08T09:21:55.425Z,312
2022-08-08T09:21:55.650Z,313.41
2022-08-08T09:22:03.068Z,199.06
2022-08-08T09:22:58.129Z,319.06
2022-08-08T09:23:53.430Z,317.65
2022-08-08T09:24:53.428Z,343.06
2022-08-08T09:25:54.571Z,306.35
2022-08-08T09:26:53.432Z,302.12
2022-08-08T09:27:57.769Z,313.41
2022-08-08T09:28:53.437Z,303.53
2022-08-08T09:29:53.444Z,306.35
2022-08-08T09:30:53.438Z,304.94
2022-08-08T09:31:56.342Z,309.18
2022-08-08T09:33:01.493Z,307.76
2022-08-08T09:33:55.257Z,303.53
2022-08-08T09:34:53.437Z,15.53
2022-08-08T09:35:53.614Z,309.18
2022-08-08T09:37:28.904Z,28.24
2022-08-08T09:37:59.234Z,304.94
2022-08-08T09:38:54.129Z,295.06
2022-08-08T09:39:53.483Z,266.82
2022-08-08T09:40:55.762Z,266.82
2022-08-08T09:41:55.194Z,237.18
2022-08-08T09:42:53.450Z,237.18
2022-08-08T09:44:05.955Z,237.18
2022-08-08T09:44:53.458Z,237.18
2022-08-08T09:45:55.735Z,237.18
2022-08-08T09:46:57.403Z,297.88
2022-08-08T09:48:02.810Z,288
2022-08-08T09:48:53.463Z,254.12
2022-08-08T09:49:53.456Z,241.41
2022-08-08T09:50:55.927Z,208.94
2022-08-08T09:52:02.078Z,208.94
2022-08-08T09:52:54.316Z,208.94
2022-08-08T09:54:01.382Z,208.94
2022-08-08T09:54:53.465Z,208.94
2022-08-08T09:56:03.953Z,208.94
2022-08-08T09:56:53.473Z,208.94
2022-08-08T09:57:55.553Z,208.94
2022-08-08T09:58:53.475Z,208.94
2022-08-08T10:00:28.558Z,208.94
2022-08-08T10:00:57.326Z,208.94
2022-08-08T10:01:58.787Z,208.94
2022-08-08T10:02:53.474Z,208.94
2022-08-08T10:03:55.693Z,208.94
2022-08-08T10:04:53.613Z,208.94
2022-08-08T10:05:53.544Z,208.94
2022-08-08T10:06:53.787Z,208.94
2022-08-08T10:08:00.231Z,208.94
2022-08-08T10:08:53.489Z,208.94
2022-08-08T10:09:59.070Z,208.94
2022-08-08T10:10:53.483Z,208.94
2022-08-08T10:12:22.646Z,208.94
2022-08-08T10:12:57.070Z,208.94
2022-08-08T10:13:57.420Z,208.94
2022-08-08T10:14:53.496Z,208.94
2022-08-08T10:15:59.562Z,208.94
2022-08-08T10:16:53.494Z,208.94
2022-08-08T10:17:57.731Z,208.94
2022-08-08T10:18:55.385Z,208.94
2022-08-08T10:19:57.986Z,208.94
2022-08-08T10:20:58.418Z,208.94
2022-08-08T10:21:53.511Z,208.94
2022-08-08T10:22:54.756Z,208.94
2022-08-08T10:23:56.311Z,208.94
2022-08-08T10:24:53.503Z,208.94
2022-08-08T10:25:56.331Z,279.53
2022-08-08T10:26:59.636Z,300.71
2022-08-08T10:27:53.505Z,293.65
2022-08-08T10:28:53.783Z,303.53
2022-08-08T10:29:57.263Z,278.12
2022-08-08T10:30:57.160Z,278.12
2022-08-08T10:31:54.868Z,278.12
2022-08-08T10:32:53.507Z,278.12
2022-08-08T10:34:19.775Z,278.12
2022-08-08T10:34:58.697Z,292.24
2022-08-08T10:36:07.912Z,300.71
2022-08-08T10:36:53.519Z,302.12
2022-08-08T10:37:53.519Z,302.12
2022-08-08T10:38:53.514Z,300.71
2022-08-08T10:39:54.887Z,297.88
2022-08-08T10:40:53.849Z,297.88
2022-08-08T10:41:58.690Z,297.88
2022-08-08T10:42:53.537Z,8.47
2022-08-08T10:43:53.530Z,5.65
2022-08-08T10:44:53.533Z,5.65
2022-08-08T10:45:55.381Z,5.65
2022-08-08T10:46:53.530Z,5.65
2022-08-08T10:47:53.635Z,5.65
2022-08-08T10:48:56.482Z,5.65
2022-08-08T10:50:00.973Z,5.65
2022-08-08T10:50:53.562Z,352.94
2022-08-08T10:51:53.531Z,38.12
2022-08-08T10:52:53.541Z,43.76
2022-08-08T10:53:56.998Z,341.65
2022-08-08T10:54:53.541Z,313.41
2022-08-08T10:55:53.542Z,307.76
2022-08-08T10:56:53.543Z,295.06
2022-08-08T10:57:53.605Z,289.41
2022-08-08T10:58:54.735Z,8.47
2022-08-08T10:59:53.543Z,348.71
2022-08-08T11:01:02.092Z,295.06
2022-08-08T11:01:54.778Z,319.06
2022-08-08T11:02:53.552Z,307.76
2022-08-08T11:04:01.610Z,303.53
2022-08-08T11:04:54.165Z,323.29
2022-08-08T11:06:00.515Z,334.59
2022-08-08T11:06:53.558Z,317.65
2022-08-08T11:08:30.514Z,326.12
2022-08-08T11:08:53.941Z,321.88
2022-08-08T11:09:53.558Z,333.18
2022-08-08T11:10:53.555Z,341.65
2022-08-08T11:12:00.429Z,283.76
2022-08-08T11:13:12.417Z,286.59
2022-08-08T11:13:59.933Z,292.24
2022-08-08T11:14:53.557Z,293.65
2022-08-08T11:15:58.938Z,296.47
2022-08-08T11:16:53.551Z,290.82
2022-08-08T11:17:58.029Z,299.29
2022-08-08T11:18:53.565Z,62.12
2022-08-08T11:19:53.554Z,331.76
2022-08-08T11:20:53.572Z,357.18
2022-08-08T11:21:54.121Z,352.94
2022-08-08T11:22:53.568Z,357.18
2022-08-08T11:24:01.763Z,350.12
2022-08-08T11:24:53.573Z,295.06
2022-08-08T11:25:57.068Z,297.88
2022-08-08T11:26:54.035Z,279.53
2022-08-08T11:27:53.575Z,245.65
2022-08-08T11:28:53.573Z,245.65
2022-08-08T11:30:18.739Z,289.41
2022-08-08T11:30:53.580Z,286.59
2022-08-08T11:31:53.608Z,286.59
2022-08-08T11:32:53.870Z,290.82
2022-08-08T11:34:01.782Z,272.47
2022-08-08T11:35:08.180Z,336
2022-08-08T11:35:53.585Z,293.65
2022-08-08T11:36:53.586Z,310.59
2022-08-08T11:38:37.327Z,316.24
2022-08-08T11:38:55.076Z,278.12
2022-08-08T11:39:57.067Z,223.06
2022-08-08T11:40:53.622Z,204.71
2022-08-08T11:41:53.621Z,204.71
2022-08-08T11:42:53.592Z,289.41
2022-08-08T11:43:53.752Z,286.59
2022-08-08T11:44:53.584Z,299.29
2022-08-08T11:46:09.487Z,288
2022-08-08T11:46:54.340Z,300.71
2022-08-08T11:48:03.027Z,247.06
2022-08-08T11:48:53.607Z,238.59
2022-08-08T11:49:53.607Z,200.47
2022-08-08T11:50:53.603Z,280.94
2022-08-08T11:51:53.597Z,213.18
2022-08-08T11:52:53.603Z,213.18
2022-08-08T11:53:55.448Z,213.18
2022-08-08T11:54:54.485Z,278.12
2022-08-08T11:55:53.600Z,282.35
2022-08-08T11:56:56.272Z,280.94
2022-08-08T11:57:55.882Z,319.06
2022-08-08T11:58:53.603Z,302.12
2022-08-08T11:59:58.112Z,296.47
2022-08-08T12:00:53.802Z,309.18
2022-08-08T12:02:01.186Z,320.47
2022-08-08T12:02:53.682Z,344.47
2022-08-08T12:03:57.489Z,320.47
2022-08-08T12:04:53.613Z,303.53
2022-08-08T12:05:53.606Z,286.59
2022-08-08T12:06:53.605Z,337.41
2022-08-08T12:07:53.616Z,2.82
2022-08-08T12:08:53.612Z,310.59
2022-08-08T12:09:57.200Z,352.94
2022-08-08T12:10:53.609Z,344.47
2022-08-08T12:11:53.619Z,14.12
2022-08-08T12:12:54.525Z,15.53
2022-08-08T12:14:03.240Z,330.35
2022-08-08T12:14:54.824Z,344.47
2022-08-08T12:15:53.622Z,352.94
2022-08-08T12:16:53.623Z,354.35
2022-08-08T12:17:53.623Z,338.82
2022-08-08T12:18:53.633Z,352.94
2022-08-08T12:19:53.980Z,351.53
2022-08-08T12:20:54.273Z,351.53
2022-08-08T12:21:58.997Z,351.53
2022-08-08T12:22:53.624Z,351.53
2022-08-08T12:23:59.606Z,351.53
2022-08-08T12:24:54.381Z,351.53
2022-08-08T12:25:55.211Z,348.71
2022-08-08T12:26:54.006Z,345.88
2022-08-08T12:27:53.629Z,348.71
2022-08-08T12:28:53.631Z,344.47
2022-08-08T12:29:53.622Z,344.47
2022-08-08T12:30:53.629Z,345.88
2022-08-08T12:31:54.388Z,347.29
2022-08-08T12:32:53.625Z,347.29
2022-08-08T12:34:02.409Z,347.29
2022-08-08T12:34:57.611Z,347.29
2022-08-08T12:35:53.627Z,347.29
2022-08-08T12:36:53.633Z,347.29
2022-08-08T12:38:01.706Z,347.29
2022-08-08T12:38:55.272Z,347.29
2022-08-08T12:39:56.509Z,347.29
2022-08-08T12:40:54.620Z,347.29
2022-08-08T12:41:56.995Z,347.29
2022-08-08T12:42:53.783Z,347.29